Time;durP1;ratioP1;P1;durP2;ratioP2;P2;SDS_P1;SDS_P2;PMS_P1;PMS_P2;Temp;Humidity;BMP_temperature;BMP_pressure;BME280_temperature;BME280_humidity;BME280_pressure;Samples;Min_cycle;Max_cycle;Signal;HPM_P1;HPM_P2
2023/03/25 00:02:10;;;;;;;0.90;0.70;;;8.80;91.20;;;;;;5030681;28;20449;-67
2023/03/25 00:04:40;;;;;;;2.03;0.40;;;8.70;91.10;;;;;;5030603;28;20499;-67
2023/03/25 00:07:06;;;;;;;2.60;0.70;;;8.60;91.30;;;;;;5030335;28;20543;-66
2023/03/25 00:09:33;;;;;;;1.43;0.50;;;8.60;91.60;;;;;;5030718;28;21004;-67
2023/03/25 00:12:00;;;;;;;0.97;0.63;;;8.60;90.80;;;;;;5030795;28;20449;-67
2023/03/25 00:14:28;;;;;;;2.27;0.93;;;8.50;90.30;;;;;;5031700;28;20457;-67
2023/03/25 00:16:55;;;;;;;1.80;0.60;;;8.50;90.40;;;;;;5030906;28;20975;-66
2023/03/25 00:19:22;;;;;;;1.17;0.77;;;8.50;90.80;;;;;;5031658;28;20490;-67
2023/03/25 00:21:50;;;;;;;3.50;0.67;;;8.50;91.00;;;;;;5031472;28;20475;-67
2023/03/25 00:24:17;;;;;;;2.30;0.50;;;8.40;91.00;;;;;;5031320;28;20496;-66
2023/03/25 00:26:45;;;;;;;2.33;0.60;;;8.40;91.20;;;;;;5032453;28;20447;-66
2023/03/25 00:29:12;;;;;;;1.00;0.40;;;8.40;90.80;;;;;;5037697;28;20467;-67
2023/03/25 00:31:40;;;;;;;0.60;0.40;;;8.40;90.70;;;;;;5032033;28;20446;-67
2023/03/25 00:34:08;;;;;;;1.80;0.60;;;8.40;90.80;;;;;;5031711;28;20456;-67
2023/03/25 00:36:36;;;;;;;1.57;0.83;;;8.40;90.40;;;;;;5031853;28;20573;-67
2023/03/25 00:39:04;;;;;;;1.03;0.60;;;8.40;90.30;;;;;;5031549;28;20496;-67
2023/03/25 00:41:31;;;;;;;2.67;0.60;;;8.30;90.30;;;;;;5031521;28;20459;-67
2023/03/25 00:43:59;;;;;;;1.20;0.93;;;8.30;89.70;;;;;;5031542;28;20462;-67
2023/03/25 00:46:27;;;;;;;3.13;0.80;;;8.30;90.50;;;;;;5031459;28;20441;-66
2023/03/25 00:48:57;;;;;;;0.97;0.60;;;8.20;90.50;;;;;;5031238;28;20472;-66
2023/03/25 00:51:24;;;;;;;1.17;0.50;;;8.30;90.10;;;;;;5031548;28;20449;-66
2023/03/25 00:53:52;;;;;;;3.37;0.43;;;8.30;90.10;;;;;;5031165;28;20541;-67
2023/03/25 00:56:19;;;;;;;1.70;0.70;;;8.30;89.20;;;;;;5031733;28;20452;-66
2023/03/25 00:58:46;;;;;;;1.10;0.50;;;8.30;89.90;;;;;;5031330;28;20484;-66
2023/03/25 01:01:15;;;;;;;4.80;0.73;;;8.30;89.50;;;;;;5031639;28;20460;-67
2023/03/25 01:03:43;;;;;;;0.97;0.50;;;8.20;89.70;;;;;;5030946;28;20448;-66
2023/03/25 01:06:12;;;;;;;1.70;0.40;;;8.10;90.60;;;;;;5031920;28;20445;-65
2023/03/25 01:08:40;;;;;;;1.50;0.80;;;7.90;90.80;;;;;;5031409;28;20465;-67
2023/03/25 01:11:16;;;;;;;1.63;0.73;;;7.90;90.80;;;;;;5031174;28;20476;-67
2023/03/25 01:13:43;;;;;;;1.17;0.40;;;7.80;90.80;;;;;;5030867;28;20441;-68
2023/03/25 01:16:10;;;;;;;1.83;0.80;;;7.80;91.20;;;;;;5031032;28;20454;-65
2023/03/25 01:18:37;;;;;;;0.83;0.50;;;7.80;90.80;;;;;;5031241;28;20493;-67
2023/03/25 01:21:04;;;;;;;1.40;0.90;;;7.80;90.50;;;;;;5030960;28;20446;-67
2023/03/25 01:23:33;;;;;;;1.70;0.60;;;7.70;90.80;;;;;;5030738;28;21107;-67
2023/03/25 01:26:00;;;;;;;0.90;0.70;;;7.70;90.90;;;;;;5030802;28;20448;-68
2023/03/25 01:28:28;;;;;;;1.60;0.80;;;7.70;90.90;;;;;;5030644;28;20974;-66
2023/03/25 01:31:00;;;;;;;2.47;0.73;;;7.80;90.20;;;;;;5030671;28;20450;-65
2023/03/25 01:33:27;;;;;;;2.13;0.53;;;7.80;90.00;;;;;;5030337;28;20450;-65
2023/03/25 01:35:54;;;;;;;1.57;0.53;;;7.80;90.00;;;;;;5030667;28;20451;-66
2023/03/25 01:38:21;;;;;;;7.10;0.90;;;7.80;89.70;;;;;;5030287;28;20988;-66
2023/03/25 01:40:50;;;;;;;2.40;0.80;;;7.80;89.20;;;;;;5030256;28;20475;-68
2023/03/25 01:43:17;;;;;;;1.80;0.97;;;7.80;89.10;;;;;;5030102;28;20451;-67
2023/03/25 01:45:45;;;;;;;1.53;0.70;;;7.80;89.20;;;;;;5030794;28;20454;-67
2023/03/25 01:48:17;;;;;;;2.77;1.00;;;7.80;89.40;;;;;;5030447;28;20854;-66
2023/03/25 01:50:49;;;;;;;0.97;0.50;;;7.90;87.60;;;;;;5030438;28;20947;-67
2023/03/25 01:53:16;;;;;;;1.70;0.70;;;8.00;86.80;;;;;;5030223;28;20455;-67
2023/03/25 01:55:44;;;;;;;1.70;0.77;;;8.10;86.30;;;;;;5029998;28;20478;-67
2023/03/25 01:58:15;;;;;;;2.47;0.83;;;8.20;85.90;;;;;;5030377;28;20577;-68
2023/03/25 02:00:45;;;;;;;2.47;1.00;;;8.10;86.60;;;;;;5030253;28;20444;-67
2023/03/25 02:03:13;;;;;;;1.60;0.70;;;8.10;86.70;;;;;;5029971;28;20571;-68
2023/03/25 02:05:48;;;;;;;2.90;0.90;;;8.10;86.40;;;;;;5030358;28;20456;-67
2023/03/25 02:08:15;;;;;;;3.17;1.40;;;8.00;86.60;;;;;;5029798;28;20472;-66
2023/03/25 02:10:45;;;;;;;4.07;0.87;;;7.90;88.30;;;;;;5029895;28;20447;-65
2023/03/25 02:13:15;;;;;;;2.10;0.87;;;7.90;86.50;;;;;;5029796;28;20485;-67
2023/03/25 02:15:58;;;;;;;2.17;0.97;;;7.80;87.50;;;;;;5030161;28;20447;-66
2023/03/25 02:18:36;;;;;;;3.00;0.97;;;7.80;87.90;;;;;;5029651;28;20495;-67
2023/03/25 02:21:29;;;;;;;2.03;0.97;;;7.80;88.80;;;;;;5029793;28;20455;-67
2023/03/25 02:24:52;;;;;;;1.47;0.83;;;7.80;87.90;;;;;;5029089;28;20447;-67
2023/03/25 02:27:27;;;;;;;2.40;0.67;;;7.90;87.10;;;;;;5029809;28;20488;-67
2023/03/25 02:30:32;;;;;;;2.80;1.00;;;8.10;85.20;;;;;;5029951;28;20444;-66
2023/03/25 02:33:44;;;;;;;0.83;0.60;;;8.30;84.70;;;;;;5020703;28;20475;-67
2023/03/25 02:36:41;;;;;;;1.53;0.70;;;8.40;83.80;;;;;;4994101;28;20513;-67
2023/03/25 02:39:14;;;;;;;1.10;0.50;;;8.40;84.80;;;;;;5029804;28;20499;-67
2023/03/25 02:41:46;;;;;;;1.63;0.63;;;8.40;86.40;;;;;;5029581;28;20452;-67
2023/03/25 02:44:17;;;;;;;4.40;1.00;;;8.40;85.50;;;;;;5029677;28;20453;-68
2023/03/25 02:46:49;;;;;;;2.37;1.50;;;8.40;86.50;;;;;;5029868;28;20440;-67
2023/03/25 02:49:19;;;;;;;2.70;1.43;;;8.30;86.70;;;;;;5029803;28;20443;-66
2023/03/25 02:51:52;;;;;;;2.53;0.90;;;7.20;89.20;;;;;;5029700;28;20452;-67
2023/03/25 02:54:23;;;;;;;3.47;0.80;;;6.20;93.40;;;;;;5028451;28;20456;-67
2023/03/25 02:56:56;;;;;;;3.50;0.80;;;5.90;94.50;;;;;;5029842;28;20467;-69
2023/03/25 02:59:24;;;;;;;1.63;0.97;;;5.90;95.00;;;;;;5030014;28;20566;-68
2023/03/25 03:01:57;;;;;;;0.50;0.40;;;5.80;95.00;;;;;;5029822;28;20791;-66
2023/03/25 03:04:24;;;;;;;0.70;0.43;;;5.80;94.90;;;;;;5029826;28;21218;-67
2023/03/25 03:06:52;;;;;;;1.57;0.60;;;5.80;94.40;;;;;;5029672;28;20965;-67
2023/03/25 03:09:29;;;;;;;2.30;0.67;;;5.80;94.60;;;;;;5029989;28;20447;-68
2023/03/25 03:12:07;;;;;;;1.33;0.50;;;5.80;95.00;;;;;;5029848;28;20444;-67
2023/03/25 03:14:48;;;;;;;1.20;0.40;;;5.80;95.20;;;;;;5029213;28;20440;-69
2023/03/25 03:17:21;;;;;;;1.40;0.50;;;5.80;95.30;;;;;;5029580;28;20550;-67
2023/03/25 03:19:52;;;;;;;2.50;0.67;;;5.80;95.40;;;;;;5029489;28;20485;-67
2023/03/25 03:22:35;;;;;;;1.27;0.50;;;5.80;95.50;;;;;;5029622;28;20894;-68
2023/03/25 03:25:11;;;;;;;1.80;0.40;;;5.90;95.60;;;;;;5029464;28;20453;-67
2023/03/25 03:27:43;;;;;;;2.23;0.40;;;5.80;95.70;;;;;;5029404;28;20464;-67
2023/03/25 03:30:14;;;;;;;0.70;0.50;;;5.90;95.80;;;;;;5029591;28;20449;-68
2023/03/25 03:32:47;;;;;;;0.80;0.37;;;5.90;96.00;;;;;;5029438;28;20452;-67
2023/03/25 03:35:18;;;;;;;2.73;0.57;;;5.90;95.60;;;;;;5030188;28;20449;-68
2023/03/25 03:37:51;;;;;;;2.47;0.50;;;5.90;95.70;;;;;;5033066;28;20474;-68
2023/03/25 03:40:22;;;;;;;1.50;0.97;;;5.90;95.70;;;;;;5032852;28;21075;-70
2023/03/25 03:42:55;;;;;;;0.80;0.57;;;5.90;96.10;;;;;;5032625;28;20481;-67
2023/03/25 03:45:25;;;;;;;1.60;0.70;;;5.90;96.10;;;;;;5032973;28;20455;-69
2023/03/25 03:47:56;;;;;;;1.40;0.60;;;5.90;96.00;;;;;;5032543;28;21026;-67
2023/03/25 03:50:27;;;;;;;1.53;0.50;;;5.90;96.60;;;;;;5032801;28;20454;-67
2023/03/25 03:53:03;;;;;;;1.37;0.70;;;6.00;96.00;;;;;;5032262;28;20826;-68
2023/03/25 03:55:36;;;;;;;3.20;0.73;;;6.00;96.20;;;;;;5032866;28;20458;-67
2023/03/25 03:58:09;;;;;;;1.53;0.60;;;6.00;96.20;;;;;;5032601;28;20469;-68
2023/03/25 04:00:42;;;;;;;1.10;0.50;;;6.00;96.60;;;;;;5032636;28;20869;-68
2023/03/25 04:03:14;;;;;;;1.87;0.60;;;6.10;96.20;;;;;;5032139;28;20455;-67
2023/03/25 04:05:46;;;;;;;2.10;0.70;;;6.20;95.80;;;;;;5032824;28;20455;-67
2023/03/25 04:08:20;;;;;;;2.10;0.60;;;6.10;95.80;;;;;;5032621;28;20828;-67
2023/03/25 04:10:57;;;;;;;1.93;0.57;;;6.10;95.80;;;;;;5032451;28;20456;-67
2023/03/25 04:13:28;;;;;;;3.33;0.77;;;6.20;95.70;;;;;;5032091;28;20449;-67
2023/03/25 04:15:58;;;;;;;2.03;0.70;;;6.30;95.20;;;;;;5032369;28;20456;-66
2023/03/25 04:18:27;;;;;;;2.03;0.60;;;6.30;94.90;;;;;;5032159;28;20466;-68
2023/03/25 04:20:54;;;;;;;0.70;0.40;;;6.30;94.80;;;;;;5031967;28;20542;-65
2023/03/25 04:23:21;;;;;;;0.70;0.40;;;6.40;94.30;;;;;;5032042;28;20450;-67
2023/03/25 04:25:51;;;;;;;1.20;0.50;;;6.50;94.20;;;;;;5032011;28;20456;-67
2023/03/25 04:28:18;;;;;;;1.90;0.60;;;6.50;94.30;;;;;;5032238;28;20474;-66
2023/03/25 04:30:45;;;;;;;0.97;0.60;;;6.40;94.00;;;;;;5032293;28;20444;-67
2023/03/25 04:33:13;;;;;;;1.50;0.73;;;6.40;94.30;;;;;;5031828;28;20447;-69
2023/03/25 04:35:40;;;;;;;2.07;0.70;;;6.30;94.20;;;;;;5031991;28;20552;-68
2023/03/25 04:38:08;;;;;;;3.70;0.97;;;6.30;94.30;;;;;;5031829;28;20484;-65
2023/03/25 04:40:34;;;;;;;1.37;0.60;;;6.30;94.10;;;;;;5031632;28;21036;-68
2023/03/25 04:43:03;;;;;;;2.10;0.80;;;6.30;93.70;;;;;;5031330;28;20451;-67
2023/03/25 04:45:35;;;;;;;1.63;0.60;;;6.20;93.80;;;;;;5031884;28;20457;-67
2023/03/25 04:48:04;;;;;;;3.97;0.50;;;6.20;94.00;;;;;;5031704;28;20891;-67
2023/03/25 04:50:32;;;;;;;2.63;0.90;;;6.20;93.90;;;;;;5031687;28;20442;-67
2023/03/25 04:53:00;;;;;;;0.70;0.70;;;6.20;94.00;;;;;;5031599;28;20478;-67
2023/03/25 04:55:27;;;;;;;0.60;0.50;;;6.10;94.00;;;;;;5031840;28;20444;-67
2023/03/25 04:57:54;;;;;;;3.00;0.70;;;6.10;93.60;;;;;;5031964;28;20481;-67
2023/03/25 05:00:24;;;;;;;1.30;0.57;;;6.10;93.80;;;;;;5031809;28;20497;-67
2023/03/25 05:02:53;;;;;;;1.50;0.70;;;6.10;93.80;;;;;;5031652;28;20465;-69
2023/03/25 05:05:23;;;;;;;0.83;0.80;;;6.10;94.00;;;;;;5031443;28;20448;-66
2023/03/25 05:07:52;;;;;;;2.33;0.90;;;6.00;93.80;;;;;;5031512;28;20471;-67
2023/03/25 05:10:20;;;;;;;1.67;0.80;;;6.00;93.90;;;;;;5031575;28;20454;-65
2023/03/25 05:12:47;;;;;;;2.57;0.73;;;6.00;93.70;;;;;;5031193;28;20454;-68
2023/03/25 05:15:15;;;;;;;0.97;0.60;;;6.10;93.60;;;;;;5031438;28;20463;-66
2023/03/25 05:17:44;;;;;;;1.10;0.70;;;6.10;93.90;;;;;;5031100;28;21346;-67
2023/03/25 05:20:12;;;;;;;0.93;0.60;;;6.20;93.80;;;;;;5031060;28;20561;-66
2023/03/25 05:22:40;;;;;;;2.73;0.87;;;6.20;94.20;;;;;;5030980;28;20451;-67
2023/03/25 05:25:09;;;;;;;4.60;1.83;;;6.20;94.50;;;;;;5031303;28;20586;-67
2023/03/25 05:27:36;;;;;;;1.47;0.70;;;6.20;94.30;;;;;;5031389;28;20500;-66
2023/03/25 05:30:04;;;;;;;3.17;0.67;;;6.40;93.90;;;;;;5031167;28;20448;-67
2023/03/25 05:32:32;;;;;;;1.20;0.80;;;6.50;93.80;;;;;;5030810;28;20458;-66
2023/03/25 05:35:00;;;;;;;2.70;0.83;;;6.50;93.10;;;;;;5031284;28;20513;-68
2023/03/25 05:37:28;;;;;;;1.73;0.60;;;6.50;93.20;;;;;;5031160;28;20479;-66
2023/03/25 05:39:55;;;;;;;3.60;0.50;;;6.50;92.90;;;;;;5030653;28;20479;-67
2023/03/25 05:42:22;;;;;;;2.10;0.60;;;6.50;93.20;;;;;;5030757;28;20447;-67
2023/03/25 05:44:50;;;;;;;2.87;0.97;;;6.50;92.40;;;;;;5030702;28;20454;-67
2023/03/25 05:47:19;;;;;;;2.97;0.70;;;6.60;92.30;;;;;;5030547;28;20878;-66
2023/03/25 05:49:46;;;;;;;2.83;0.97;;;6.70;92.00;;;;;;5030326;28;20482;-67
2023/03/25 05:52:15;;;;;;;2.50;0.80;;;6.80;91.80;;;;;;5030208;28;21018;-68
2023/03/25 05:54:42;;;;;;;3.77;1.30;;;6.90;91.80;;;;;;5030350;28;20988;-65
2023/03/25 05:57:09;;;;;;;2.63;1.47;;;6.90;91.70;;;;;;5030163;28;20464;-67
2023/03/25 05:59:37;;;;;;;3.40;0.90;;;6.90;91.00;;;;;;5029889;28;20444;-67
2023/03/25 06:02:06;;;;;;;3.30;1.47;;;7.00;91.40;;;;;;5030132;28;20452;-67
2023/03/25 06:04:36;;;;;;;1.70;0.97;;;7.10;91.20;;;;;;5030383;28;20506;-68
2023/03/25 06:07:07;;;;;;;4.53;1.07;;;7.20;91.60;;;;;;5030202;28;20460;-67
2023/03/25 06:09:36;;;;;;;3.60;1.33;;;7.30;91.10;;;;;;5030571;28;20866;-67
2023/03/25 06:12:03;;;;;;;4.03;1.13;;;7.30;90.60;;;;;;5030069;28;20462;-68
2023/03/25 06:14:30;;;;;;;4.63;0.90;;;7.30;90.40;;;;;;5029924;28;20825;-67
2023/03/25 06:16:57;;;;;;;2.43;0.97;;;7.30;89.30;;;;;;5030077;28;20454;-69
2023/03/25 06:19:25;;;;;;;3.83;1.03;;;7.30;90.20;;;;;;5030040;28;20457;-67
2023/03/25 06:21:52;;;;;;;1.87;1.13;;;7.30;90.70;;;;;;5030302;28;20456;-67
2023/03/25 06:24:19;;;;;;;3.50;1.00;;;7.50;90.10;;;;;;5029594;28;20449;-67
2023/03/25 06:26:47;;;;;;;3.43;1.27;;;7.60;90.00;;;;;;5030039;28;20458;-67
2023/03/25 06:29:13;;;;;;;5.50;0.97;;;7.70;90.40;;;;;;5029823;28;21007;-67
2023/03/25 06:31:41;;;;;;;4.33;1.43;;;7.70;87.40;;;;;;5030170;28;20448;-67
2023/03/25 06:34:09;;;;;;;2.03;1.00;;;7.90;87.90;;;;;;5029682;28;20832;-66
2023/03/25 06:36:35;;;;;;;1.67;0.90;;;8.00;88.00;;;;;;5030035;28;20472;-66
2023/03/25 06:39:05;;;;;;;5.60;3.33;;;8.10;87.30;;;;;;5029789;28;20968;-67
2023/03/25 06:41:34;;;;;;;5.13;1.00;;;8.00;86.10;;;;;;5029403;28;20485;-68
2023/03/25 06:44:03;;;;;;;3.17;1.20;;;8.00;88.40;;;;;;5029934;28;20488;-66
2023/03/25 06:46:30;;;;;;;2.30;1.90;;;7.90;87.40;;;;;;5029795;28;20462;-65
2023/03/25 06:48:57;;;;;;;4.87;1.50;;;7.90;87.60;;;;;;5029940;28;20546;-67
2023/03/25 06:51:24;;;;;;;2.70;1.10;;;8.00;87.20;;;;;;5029711;28;20454;-67
2023/03/25 06:53:51;;;;;;;4.70;1.43;;;8.10;87.00;;;;;;5029496;28;20452;-66
2023/03/25 06:56:17;;;;;;;3.20;1.30;;;8.30;89.80;;;;;;5029765;28;20455;-67
2023/03/25 06:58:44;;;;;;;6.13;1.53;;;8.40;87.10;;;;;;5029868;28;20475;-69
2023/03/25 07:01:12;;;;;;;2.80;1.00;;;8.40;86.20;;;;;;5029945;28;20487;-66
2023/03/25 07:03:39;;;;;;;3.80;1.20;;;8.40;86.20;;;;;;5029735;28;20451;-66
2023/03/25 07:06:07;;;;;;;2.17;1.00;;;8.40;87.10;;;;;;5029934;28;20471;-68
2023/03/25 07:08:34;;;;;;;2.60;1.17;;;8.40;86.30;;;;;;5029544;28;20457;-67
2023/03/25 07:11:02;;;;;;;2.97;0.80;;;8.50;84.40;;;;;;5033824;28;20440;-67
2023/03/25 07:13:30;;;;;;;2.07;0.93;;;8.60;85.50;;;;;;5033456;28;20456;-68
2023/03/25 07:15:57;;;;;;;2.33;0.63;;;8.70;82.90;;;;;;5033602;28;20454;-63
2023/03/25 07:18:25;;;;;;;2.83;0.80;;;8.80;83.10;;;;;;5033469;28;20477;-67
2023/03/25 07:20:52;;;;;;;3.70;1.00;;;9.10;82.80;;;;;;5033457;28;20476;-67
2023/03/25 07:23:19;;;;;;;3.20;0.80;;;9.60;78.50;;;;;;5033291;28;20456;-67
2023/03/25 07:25:46;;;;;;;1.60;0.70;;;9.90;77.80;;;;;;5033477;28;20495;-66
2023/03/25 07:28:13;;;;;;;3.00;0.60;;;10.00;75.90;;;;;;5033224;28;20473;-68
2023/03/25 07:30:40;;;;;;;2.57;0.80;;;9.80;75.30;;;;;;5033199;28;20467;-65
2023/03/25 07:33:07;;;;;;;4.60;0.77;;;9.70;76.10;;;;;;5032905;28;20441;-66
2023/03/25 07:35:35;;;;;;;2.23;0.60;;;9.70;74.90;;;;;;5033075;28;20507;-68
2023/03/25 07:38:02;;;;;;;5.03;0.80;;;9.90;75.00;;;;;;5033182;28;20481;-67
2023/03/25 07:40:29;;;;;;;1.50;0.40;;;9.90;74.50;;;;;;5033005;28;20489;-67
2023/03/25 07:42:56;;;;;;;1.87;0.80;;;9.70;73.40;;;;;;5032787;28;20491;-67
2023/03/25 07:45:22;;;;;;;2.93;0.90;;;9.80;75.70;;;;;;5032992;28;20454;-66
2023/03/25 07:47:50;;;;;;;1.30;0.63;;;9.90;74.80;;;;;;5032651;28;20472;-65
2023/03/25 07:50:17;;;;;;;3.63;0.97;;;10.10;73.90;;;;;;5032707;28;20942;-66
2023/03/25 07:52:45;;;;;;;1.10;0.77;;;10.30;75.00;;;;;;5032616;28;20518;-66
2023/03/25 07:55:13;;;;;;;3.70;0.83;;;10.60;75.00;;;;;;5032835;28;20450;-67
2023/03/25 07:57:40;;;;;;;3.60;1.23;;;10.60;72.90;;;;;;5032673;28;20465;-67
2023/03/25 08:00:09;;;;;;;2.20;0.87;;;10.50;70.50;;;;;;5032522;28;20547;-67
2023/03/25 08:02:36;;;;;;;2.13;0.80;;;10.70;70.50;;;;;;5032538;28;20542;-68
2023/03/25 08:05:04;;;;;;;3.33;1.00;;;10.90;70.40;;;;;;5033202;28;20447;-68
2023/03/25 08:07:31;;;;;;;2.47;1.00;;;11.10;68.90;;;;;;5032776;28;20466;-69
2023/03/25 08:09:59;;;;;;;3.33;0.73;;;11.10;68.50;;;;;;5032330;28;20452;-68
2023/03/25 08:12:26;;;;;;;3.37;0.70;;;11.10;69.40;;;;;;5032051;28;20458;-69
2023/03/25 08:14:53;;;;;;;4.10;0.80;;;11.30;69.30;;;;;;5032248;28;20535;-67
2023/03/25 08:17:19;;;;;;;1.90;0.60;;;11.60;67.40;;;;;;5032083;28;20483;-68
2023/03/25 08:19:46;;;;;;;0.97;0.47;;;11.80;66.00;;;;;;5032168;28;20950;-68
2023/03/25 08:22:13;;;;;;;2.97;0.73;;;11.90;66.10;;;;;;5031212;28;20485;-67
2023/03/25 08:24:40;;;;;;;3.67;0.77;;;11.90;65.10;;;;;;5032018;28;20453;-66
2023/03/25 08:27:08;;;;;;;1.20;0.73;;;12.00;65.20;;;;;;5032079;28;20453;-67
2023/03/25 08:29:35;;;;;;;0.90;0.43;;;11.90;67.50;;;;;;5032017;28;20444;-67
2023/03/25 08:32:02;;;;;;;1.83;0.60;;;12.20;66.40;;;;;;5032101;28;20477;-69
2023/03/25 08:34:33;;;;;;;1.50;0.80;;;12.20;63.50;;;;;;5032036;28;20446;-67
2023/03/25 08:37:00;;;;;;;4.20;1.30;;;12.10;64.60;;;;;;5032140;28;20494;-66
2023/03/25 08:39:28;;;;;;;1.83;0.50;;;12.00;63.80;;;;;;5031891;28;20457;-66
2023/03/25 08:41:57;;;;;;;1.47;0.60;;;11.90;63.80;;;;;;5031699;28;20514;-67
2023/03/25 08:44:26;;;;;;;3.57;0.60;;;12.10;63.50;;;;;;5031449;28;20449;-66
2023/03/25 08:46:53;;;;;;;2.50;0.67;;;12.10;61.20;;;;;;5029882;28;20459;-69
2023/03/25 08:49:20;;;;;;;2.50;0.90;;;11.80;61.90;;;;;;5025834;28;20448;-66
2023/03/25 08:51:46;;;;;;;4.37;0.90;;;11.60;63.20;;;;;;5026098;28;20844;-64
2023/03/25 08:54:13;;;;;;;1.20;0.50;;;11.20;68.10;;;;;;5030805;28;20463;-68
2023/03/25 08:56:40;;;;;;;1.50;0.50;;;10.70;73.10;;;;;;5025985;28;20443;-67
2023/03/25 08:59:07;;;;;;;2.10;1.90;;;10.20;74.10;;;;;;5019482;28;20465;-64
2023/03/25 09:01:35;;;;;;;0.50;0.30;;;10.00;74.80;;;;;;5017535;28;20489;-68
2023/03/25 09:04:02;;;;;;;2.40;0.80;;;9.90;77.10;;;;;;5011678;28;20969;-66
2023/03/25 09:06:29;;;;;;;1.13;0.73;;;9.80;76.20;;;;;;5011815;28;20442;-66
2023/03/25 09:08:56;;;;;;;1.53;0.60;;;9.70;77.90;;;;;;5011813;28;20470;-66
2023/03/25 09:11:23;;;;;;;1.57;0.60;;;9.70;78.10;;;;;;5011693;28;20449;-66
2023/03/25 09:13:49;;;;;;;0.67;0.40;;;9.50;79.30;;;;;;5017165;28;20461;-65
2023/03/25 09:16:16;;;;;;;0.73;0.30;;;9.10;81.40;;;;;;5031028;28;20448;-67
2023/03/25 09:18:44;;;;;;;0.80;0.30;;;8.90;85.10;;;;;;5028418;28;20503;-67
2023/03/25 09:21:11;;;;;;;0.80;0.40;;;9.10;90.20;;;;;;5021593;28;20572;-66
2023/03/25 09:23:38;;;;;;;2.10;0.60;;;9.70;88.10;;;;;;5029403;28;20448;-67
2023/03/25 09:26:05;;;;;;;0.47;0.30;;;10.00;83.30;;;;;;5022353;28;20449;-66
2023/03/25 09:28:32;;;;;;;0.73;0.33;;;10.00;81.20;;;;;;5029105;28;20462;-68
2023/03/25 09:30:59;;;;;;;0.80;0.40;;;9.80;83.20;;;;;;5024788;28;20928;-67
2023/03/25 09:33:26;;;;;;;0.70;0.40;;;10.00;82.60;;;;;;5027776;28;20448;-66
2023/03/25 09:35:54;;;;;;;1.57;0.50;;;10.20;81.70;;;;;;5030516;28;20536;-67
2023/03/25 09:38:22;;;;;;;1.80;0.50;;;10.30;80.40;;;;;;5030587;28;20470;-66
2023/03/25 09:40:49;;;;;;;0.80;0.33;;;10.30;79.80;;;;;;5030028;28;20556;-68
2023/03/25 09:43:34;;;;;;;0.90;0.40;;;10.50;80.50;;;;;;5028684;28;20568;-67
2023/03/25 09:46:01;;;;;;;1.10;0.33;;;10.60;79.30;;;;;;5024798;28;20462;-67
2023/03/25 09:48:34;;;;;;;0.60;0.40;;;10.70;77.60;;;;;;5023315;28;20472;-67
2023/03/25 09:51:05;;;;;;;1.67;0.50;;;11.00;76.10;;;;;;5026985;28;20442;-68
2023/03/25 09:53:37;;;;;;;2.27;0.67;;;11.20;75.30;;;;;;5026469;28;20457;-68
2023/03/25 09:56:06;;;;;;;0.70;0.30;;;11.40;76.20;;;;;;5023736;28;20452;-69
2023/03/25 09:58:41;;;;;;;1.10;0.40;;;11.40;75.10;;;;;;5020788;28;20463;-68
2023/03/25 10:01:23;;;;;;;0.80;0.43;;;11.20;73.60;;;;;;5020780;28;20521;-68
2023/03/25 10:04:02;;;;;;;0.70;0.50;;;11.10;76.10;;;;;;5020423;28;20484;-74
2023/03/25 10:06:32;;;;;;;0.97;0.40;;;11.00;77.30;;;;;;5022475;28;20446;-68
2023/03/25 10:09:17;;;;;;;0.80;0.50;;;11.00;79.10;;;;;;5026162;28;20472;-66
2023/03/25 10:11:49;;;;;;;1.57;0.63;;;11.30;76.80;;;;;;5023612;28;20447;-67
2023/03/25 10:14:21;;;;;;;1.47;0.50;;;11.70;73.90;;;;;;5018338;28;20504;-67
2023/03/25 10:17:04;;;;;;;1.23;0.50;;;12.30;73.90;;;;;;5023730;28;20445;-66
2023/03/25 10:19:49;;;;;;;1.20;0.30;;;12.90;70.60;;;;;;5022236;28;20957;-66
2023/03/25 10:22:21;;;;;;;0.50;0.30;;;13.40;68.10;;;;;;5022280;28;20492;-64
2023/03/25 10:24:52;;;;;;;4.60;1.17;;;13.90;67.40;;;;;;5023428;28;20442;-66
2023/03/25 10:27:26;;;;;;;3.10;1.13;;;14.20;63.80;;;;;;5023544;28;20470;-66
2023/03/25 10:29:56;;;;;;;1.10;0.60;;;14.20;63.50;;;;;;5025507;28;20447;-66
2023/03/25 10:32:32;;;;;;;1.70;0.60;;;14.10;63.40;;;;;;5023912;28;20429;-66
2023/03/25 10:35:01;;;;;;;2.00;0.60;;;14.40;61.90;;;;;;5023102;28;20544;-66
2023/03/25 10:37:34;;;;;;;1.07;0.50;;;14.10;61.20;;;;;;5019562;28;20460;-67
2023/03/25 10:40:14;;;;;;;0.87;0.30;;;14.30;59.30;;;;;;5018892;28;20453;-66
2023/03/25 10:42:50;;;;;;;1.77;0.60;;;13.40;58.40;;;;;;5023420;28;20998;-66
2023/03/25 10:45:18;;;;;;;1.40;0.50;;;12.70;60.30;;;;;;5024585;28;20448;-66
2023/03/25 10:47:47;;;;;;;3.73;0.80;;;12.50;62.30;;;;;;5028974;28;20487;-66
2023/03/25 10:50:15;;;;;;;0.93;0.50;;;12.30;61.40;;;;;;5033723;28;20433;-66
2023/03/25 10:52:45;;;;;;;1.97;0.50;;;11.90;62.20;;;;;;5034789;28;20452;-65
2023/03/25 10:55:22;;;;;;;1.23;0.50;;;11.80;65.10;;;;;;5032518;28;20451;-65
2023/03/25 10:57:50;;;;;;;0.90;0.50;;;12.10;65.50;;;;;;5030316;28;20974;-65
2023/03/25 11:00:18;;;;;;;2.23;0.50;;;12.50;65.50;;;;;;5022650;28;20454;-68
2023/03/25 11:02:46;;;;;;;1.97;0.70;;;12.70;61.20;;;;;;5025078;28;20476;-66
2023/03/25 11:05:17;;;;;;;1.03;0.70;;;13.10;60.00;;;;;;5020319;28;20437;-69
2023/03/25 11:07:49;;;;;;;0.90;0.53;;;13.60;57.50;;;;;;5020059;28;20484;-67
2023/03/25 11:10:20;;;;;;;0.80;0.30;;;13.40;56.60;;;;;;5027725;28;20446;-67
2023/03/25 11:12:50;;;;;;;0.50;0.30;;;13.30;57.60;;;;;;5024791;28;20445;-67
2023/03/25 11:15:20;;;;;;;1.30;0.53;;;13.80;54.90;;;;;;5025870;28;20995;-66
2023/03/25 11:17:47;;;;;;;1.13;0.63;;;14.00;55.10;;;;;;5027322;28;21004;-67
2023/03/25 11:20:21;;;;;;;0.83;0.50;;;14.40;54.90;;;;;;5027818;28;20463;-68
2023/03/25 11:22:53;;;;;;;2.23;0.50;;;15.00;55.30;;;;;;5017423;28;20480;-69
2023/03/25 11:25:25;;;;;;;1.97;0.43;;;14.90;51.80;;;;;;5027536;28;20543;-69
2023/03/25 11:27:56;;;;;;;1.20;0.40;;;14.10;52.50;;;;;;5028777;28;20499;-69
2023/03/25 11:30:24;;;;;;;1.37;0.60;;;13.80;54.00;;;;;;5028195;28;20443;-68
2023/03/25 11:32:59;;;;;;;2.77;0.67;;;14.10;53.90;;;;;;5020421;28;20468;-69
2023/03/25 11:35:28;;;;;;;1.13;0.50;;;14.50;53.80;;;;;;5033456;28;20883;-69
2023/03/25 11:37:58;;;;;;;3.20;0.70;;;15.00;52.50;;;;;;5034416;28;20473;-68
2023/03/25 11:40:27;;;;;;;0.77;0.40;;;15.40;52.20;;;;;;5032439;28;20483;-69
2023/03/25 11:42:56;;;;;;;1.33;0.70;;;15.00;50.30;;;;;;5031421;28;21170;-67
2023/03/25 11:45:27;;;;;;;1.40;0.57;;;14.90;51.40;;;;;;5030192;28;20934;-67
2023/03/25 11:47:59;;;;;;;2.10;0.50;;;15.10;50.70;;;;;;5030740;28;20985;-68
2023/03/25 11:50:28;;;;;;;0.93;0.50;;;14.80;50.30;;;;;;5030417;28;20969;-67
2023/03/25 11:52:59;;;;;;;1.70;0.63;;;15.30;51.90;;;;;;5028478;28;20447;-69
2023/03/25 11:55:29;;;;;;;1.50;0.70;;;15.70;50.50;;;;;;5032647;28;20455;-67
2023/03/25 11:57:59;;;;;;;1.80;0.67;;;15.40;49.00;;;;;;5036644;28;20478;-67
2023/03/25 12:00:41;;;;;;;2.40;0.60;;;15.10;50.10;;;;;;5037928;28;20492;-65
2023/03/25 12:03:21;;;;;;;3.17;0.80;;;14.70;52.00;;;;;;5037685;28;20489;-69
2023/03/25 12:05:58;;;;;;;1.33;0.50;;;14.00;51.80;;;;;;5037073;28;20465;-68
2023/03/25 12:08:30;;;;;;;2.23;0.90;;;13.90;54.20;;;;;;5035344;28;20461;-66
2023/03/25 12:11:00;;;;;;;1.60;0.73;;;14.20;50.80;;;;;;5037465;28;20477;-66
2023/03/25 12:13:39;;;;;;;3.10;0.80;;;14.50;53.20;;;;;;5036474;28;20842;-66
2023/03/25 12:16:17;;;;;;;1.47;0.60;;;14.80;49.40;;;;;;5030147;28;20517;-66
2023/03/25 12:19:06;;;;;;;2.50;0.90;;;14.80;49.70;;;;;;5039246;28;20467;-66
2023/03/25 12:21:48;;;;;;;1.30;0.70;;;15.00;49.60;;;;;;5040457;28;20456;-66
2023/03/25 12:24:40;;;;;;;0.90;0.60;;;16.10;49.20;;;;;;5035459;28;20580;-67
2023/03/25 12:27:17;;;;;;;1.57;0.60;;;15.90;47.60;;;;;;5034994;28;20482;-69
2023/03/25 12:29:52;;;;;;;1.10;0.50;;;16.10;47.70;;;;;;5036078;28;20450;-66
2023/03/25 12:32:29;;;;;;;0.70;0.40;;;15.50;48.20;;;;;;5036340;28;20816;-67
2023/03/25 12:35:09;;;;;;;1.57;0.40;;;14.70;51.30;;;;;;5035998;28;20949;-67
2023/03/25 12:37:52;;;;;;;1.97;0.70;;;15.20;49.70;;;;;;5040776;28;20475;-68
2023/03/25 12:40:41;;;;;;;2.10;0.60;;;14.60;50.00;;;;;;5038310;28;20450;-65
2023/03/25 12:43:11;;;;;;;0.80;0.60;;;13.90;51.70;;;;;;5040052;28;20479;-67
2023/03/25 12:45:52;;;;;;;0.90;0.43;;;14.00;53.50;;;;;;5035196;28;20447;-68
2023/03/25 12:48:32;;;;;;;1.33;0.40;;;14.00;53.70;;;;;;5038120;28;20456;-66
2023/03/25 12:51:07;;;;;;;2.77;0.53;;;12.40;60.00;;;;;;5037486;28;20451;-65
2023/03/25 12:53:49;;;;;;;0.70;0.40;;;11.20;70.50;;;;;;5036396;28;20459;-68
2023/03/25 12:56:43;;;;;;;2.87;0.40;;;10.60;75.40;;;;;;5036918;28;20440;-69
2023/03/25 12:59:33;;;;;;;0.50;0.30;;;11.40;71.60;;;;;;5032626;28;20469;-66
2023/03/25 13:02:11;;;;;;;0.70;0.40;;;12.50;65.10;;;;;;5034848;28;20489;-68
2023/03/25 13:05:01;;;;;;;1.00;0.50;;;13.30;59.80;;;;;;5029790;28;20451;-70
2023/03/25 13:07:35;;;;;;;0.93;0.40;;;14.20;58.20;;;;;;5032524;28;20556;-69
2023/03/25 13:10:07;;;;;;;2.70;0.70;;;14.80;53.80;;;;;;5031112;28;20459;-68
2023/03/25 13:12:40;;;;;;;2.40;0.60;;;15.30;52.50;;;;;;5035777;28;20448;-69